Time;durP1;ratioP1;P1;durP2;ratioP2;P2;SDS_P1;SDS_P2;PMS_P1;PMS_P2;Temp;Humidity;BMP_temperature;BMP_pressure;BME280_temperature;BME280_humidity;BME280_pressure;Samples;Min_cycle;Max_cycle;Signal;HPM_P1;HPM_P2
2021/06/07 00:00:16;;;;;;;20.20;15.35;;;17.00;90.90;;;;;;5035426;28;20472;-77
2021/06/07 00:02:42;;;;;;;16.58;14.88;;;17.00;91.60;;;;;;5023383;28;20589;-78
2021/06/07 00:05:08;;;;;;;20.75;15.48;;;17.00;90.70;;;;;;5040789;28;20030;-77
2021/06/07 00:07:33;;;;;;;18.70;14.10;;;17.00;91.30;;;;;;5039730;28;20037;-78
2021/06/07 00:09:59;;;;;;;17.38;15.57;;;17.00;90.90;;;;;;5017523;28;20037;-76
2021/06/07 00:12:25;;;;;;;15.95;14.00;;;17.00;91.20;;;;;;5041253;28;20032;-77
2021/06/07 00:14:50;;;;;;;16.35;14.38;;;16.90;91.20;;;;;;5034102;28;20454;-77
2021/06/07 00:17:16;;;;;;;19.25;15.45;;;16.90;91.50;;;;;;5024551;28;20030;-78
2021/06/07 00:19:41;;;;;;;16.00;14.05;;;16.90;91.70;;;;;;5036035;28;20029;-77
2021/06/07 00:22:07;;;;;;;17.80;14.63;;;16.80;91.60;;;;;;5031941;28;20040;-78
2021/06/07 00:24:33;;;;;;;19.58;14.40;;;16.90;91.40;;;;;;5013756;28;20049;-77
2021/06/07 00:26:58;;;;;;;16.58;14.50;;;16.80;91.40;;;;;;5037869;28;20033;-77
2021/06/07 00:29:24;;;;;;;19.17;14.57;;;16.80;91.10;;;;;;5017069;28;20044;-77
2021/06/07 00:31:49;;;;;;;17.77;14.23;;;16.80;91.40;;;;;;5036494;28;20038;-77
2021/06/07 00:34:15;;;;;;;15.85;14.02;;;16.80;91.20;;;;;;5018567;28;20497;-77
2021/06/07 00:36:41;;;;;;;21.73;14.35;;;16.80;91.20;;;;;;5034833;28;20124;-77
2021/06/07 00:39:08;;;;;;;17.38;14.80;;;16.80;91.20;;;;;;5019307;28;20060;-76
2021/06/07 00:41:34;;;;;;;16.05;14.35;;;16.80;91.30;;;;;;5038437;28;20029;-77
2021/06/07 00:44:00;;;;;;;19.27;14.70;;;16.70;91.50;;;;;;5034660;28;20025;-77
2021/06/07 00:46:26;;;;;;;18.00;14.68;;;16.70;91.40;;;;;;5036960;28;20123;-77
2021/06/07 00:48:52;;;;;;;17.42;15.50;;;16.70;91.20;;;;;;5037662;28;20174;-77
2021/06/07 00:51:17;;;;;;;18.88;15.57;;;16.70;91.40;;;;;;5033933;28;20029;-76
2021/06/07 00:53:43;;;;;;;16.85;15.10;;;16.70;91.40;;;;;;5037314;28;20029;-77
2021/06/07 00:56:09;;;;;;;16.20;13.88;;;16.70;91.40;;;;;;5035481;28;20068;-77
2021/06/07 00:58:40;;;;;;;17.90;16.05;;;16.70;91.60;;;;;;5035681;28;20033;-77
2021/06/07 01:01:08;;;;;;;20.42;16.52;;;16.60;91.60;;;;;;5001809;28;20118;-78
2021/06/07 01:03:34;;;;;;;18.50;14.48;;;16.60;91.60;;;;;;5015241;28;20060;-77
2021/06/07 01:05:59;;;;;;;16.75;15.02;;;16.60;91.90;;;;;;5033368;28;20072;-77
2021/06/07 01:08:25;;;;;;;19.02;15.48;;;16.60;91.60;;;;;;5006342;28;20030;-77
2021/06/07 01:10:51;;;;;;;19.40;14.73;;;16.60;91.80;;;;;;5030670;28;20029;-76
2021/06/07 01:13:17;;;;;;;17.42;15.60;;;16.60;92.20;;;;;;5028644;28;20033;-77
2021/06/07 01:15:43;;;;;;;19.50;16.40;;;16.60;91.70;;;;;;5036489;28;20036;-78
2021/06/07 01:18:09;;;;;;;19.48;15.52;;;16.50;91.40;;;;;;5015328;28;20041;-78
2021/06/07 01:20:35;;;;;;;19.55;16.48;;;16.50;91.40;;;;;;5016166;28;20493;-77
2021/06/07 01:23:00;;;;;;;19.55;16.77;;;16.50;91.20;;;;;;5017774;28;20090;-77
2021/06/07 01:25:34;;;;;;;21.95;17.65;;;16.50;91.50;;;;;;5032956;28;20627;-76
2021/06/07 01:27:59;;;;;;;20.27;17.30;;;16.40;92.00;;;;;;5017301;28;20083;-77
2021/06/07 01:30:27;;;;;;;19.48;17.48;;;16.40;92.10;;;;;;5035026;28;20144;-76
2021/06/07 01:32:53;;;;;;;19.58;16.20;;;16.40;92.30;;;;;;5036180;28;20557;-77
2021/06/07 01:35:18;;;;;;;19.55;16.08;;;16.40;92.20;;;;;;5035664;28;20127;-77
2021/06/07 01:37:44;;;;;;;21.75;18.13;;;16.40;91.80;;;;;;5022374;28;20028;-77
2021/06/07 01:40:14;;;;;;;22.05;17.27;;;16.40;92.20;;;;;;5019085;28;20032;-77
2021/06/07 01:42:39;;;;;;;18.38;15.50;;;16.40;91.90;;;;;;5037426;28;20033;-77
2021/06/07 01:45:06;;;;;;;22.50;17.55;;;16.40;91.70;;;;;;5043009;28;20036;-77
2021/06/07 01:47:31;;;;;;;17.70;15.00;;;16.40;92.10;;;;;;5036727;28;20033;-78
2021/06/07 01:49:57;;;;;;;22.75;18.20;;;16.30;92.00;;;;;;5000027;28;20093;-77
2021/06/07 01:52:22;;;;;;;19.88;17.48;;;16.30;91.70;;;;;;5016940;28;20104;-78
2021/06/07 01:54:48;;;;;;;21.05;17.17;;;16.30;91.60;;;;;;5012567;28;20374;-78
2021/06/07 01:57:13;;;;;;;22.35;18.13;;;16.40;91.80;;;;;;5021210;28;20093;-77
2021/06/07 01:59:39;;;;;;;23.30;17.60;;;16.30;92.20;;;;;;5025004;28;20033;-77
2021/06/07 02:02:06;;;;;;;20.85;17.88;;;16.30;91.80;;;;;;5019947;28;20032;-77
2021/06/07 02:04:31;;;;;;;21.55;18.20;;;16.20;91.70;;;;;;5016923;28;20279;-76
2021/06/07 02:06:57;;;;;;;22.55;17.27;;;16.20;91.90;;;;;;5022371;28;20497;-76
2021/06/07 02:09:23;;;;;;;17.80;14.93;;;16.20;91.90;;;;;;5018450;28;20034;-77
2021/06/07 02:11:48;;;;;;;22.50;17.83;;;16.20;91.70;;;;;;5021019;28;20523;-77
2021/06/07 02:14:14;;;;;;;25.25;20.42;;;16.20;91.50;;;;;;5019660;28;20124;-77
2021/06/07 02:16:39;;;;;;;21.67;16.60;;;16.20;91.60;;;;;;5032596;28;20049;-77
2021/06/07 02:19:07;;;;;;;25.73;19.20;;;16.20;91.40;;;;;;5008215;28;20542;-77
2021/06/07 02:21:33;;;;;;;26.30;20.52;;;16.20;91.50;;;;;;5011467;28;20152;-77
2021/06/07 02:23:58;;;;;;;22.45;17.70;;;16.20;91.90;;;;;;4997845;28;20157;-78
2021/06/07 02:26:24;;;;;;;22.77;20.27;;;16.20;91.60;;;;;;5018905;28;20033;-83
2021/06/07 02:28:51;;;;;;;27.15;18.90;;;16.20;92.00;;;;;;5037551;28;20036;-76
2021/06/07 02:31:18;;;;;;;25.48;20.58;;;16.10;92.00;;;;;;5026487;28;20029;-77
2021/06/07 02:33:43;;;;;;;22.80;18.73;;;16.10;91.90;;;;;;5026552;28;20040;-77
2021/06/07 02:36:09;;;;;;;22.35;18.65;;;16.10;91.80;;;;;;5030524;28;20396;-77
2021/06/07 02:38:35;;;;;;;24.08;19.77;;;16.10;91.80;;;;;;5022452;28;20048;-77
2021/06/07 02:41:00;;;;;;;24.27;20.00;;;16.10;91.80;;;;;;5038493;28;20040;-77
2021/06/07 02:43:26;;;;;;;27.15;20.77;;;16.00;91.60;;;;;;5036879;28;20410;-77
2021/06/07 02:45:51;;;;;;;26.50;21.50;;;16.10;92.10;;;;;;5016487;28;20323;-77
2021/06/07 02:48:17;;;;;;;30.20;21.10;;;16.00;91.80;;;;;;5018961;28;20035;-77
2021/06/07 02:50:45;;;;;;;32.10;23.38;;;16.00;92.10;;;;;;5028044;28;20079;-77
2021/06/07 02:53:10;;;;;;;28.85;21.75;;;16.00;92.70;;;;;;5012280;28;20040;-77
2021/06/07 02:55:44;;;;;;;31.60;24.38;;;16.00;92.40;;;;;;5014315;28;20029;-76
2021/06/07 02:58:10;;;;;;;26.02;21.55;;;16.00;92.60;;;;;;5036071;28;20056;-77
2021/06/07 03:00:38;;;;;;;29.73;22.40;;;16.00;92.50;;;;;;5031075;28;20095;-77
2021/06/07 03:03:04;;;;;;;34.55;23.02;;;16.00;92.70;;;;;;5022960;28;20174;-76
2021/06/07 03:05:30;;;;;;;30.58;23.15;;;16.00;92.60;;;;;;5027189;28;20112;-77
2021/06/07 03:07:55;;;;;;;32.97;23.30;;;16.00;92.20;;;;;;5036354;28;20045;-76
2021/06/07 03:10:21;;;;;;;32.80;23.75;;;16.00;92.70;;;;;;5037077;28;20472;-77
2021/06/07 03:12:47;;;;;;;28.95;22.75;;;15.90;92.60;;;;;;5037764;28;20402;-78
2021/06/07 03:15:13;;;;;;;32.60;23.20;;;15.90;92.60;;;;;;5028355;28;20037;-76
2021/06/07 03:17:39;;;;;;;34.42;23.95;;;15.90;92.30;;;;;;5040627;28;20425;-77
2021/06/07 03:20:08;;;;;;;29.90;22.27;;;15.90;92.60;;;;;;5022147;28;20030;-77
2021/06/07 03:22:34;;;;;;;33.10;23.50;;;15.90;92.60;;;;;;4993004;28;20030;-77
2021/06/07 03:24:59;;;;;;;31.70;24.17;;;15.90;92.80;;;;;;5019165;28;20044;-77
2021/06/07 03:27:25;;;;;;;29.73;22.95;;;15.90;93.00;;;;;;5027264;28;20040;-77
2021/06/07 03:29:50;;;;;;;33.22;23.60;;;15.90;92.90;;;;;;5036580;28;20131;-77
2021/06/07 03:32:16;;;;;;;32.40;25.02;;;15.90;92.40;;;;;;5004530;28;20381;-77
2021/06/07 03:34:41;;;;;;;36.95;24.08;;;15.90;93.10;;;;;;5036036;28;20037;-77
2021/06/07 03:37:07;;;;;;;33.35;25.23;;;15.90;92.70;;;;;;5020061;28;20053;-76
2021/06/07 03:39:32;;;;;;;37.22;25.35;;;15.90;92.50;;;;;;5019207;28;20039;-77
2021/06/07 03:41:58;;;;;;;38.13;24.98;;;15.80;92.80;;;;;;5020279;28;20952;-77
2021/06/07 03:44:23;;;;;;;36.10;25.55;;;15.80;93.40;;;;;;5025040;28;20051;-77
2021/06/07 03:46:49;;;;;;;34.08;23.35;;;15.80;93.20;;;;;;5035490;28;20029;-77
2021/06/07 03:49:15;;;;;;;35.65;24.98;;;15.80;93.00;;;;;;5003551;28;20499;-77
2021/06/07 03:51:40;;;;;;;34.42;23.83;;;15.90;92.90;;;;;;5019436;28;20028;-78
2021/06/07 03:54:06;;;;;;;36.17;23.40;;;15.90;92.70;;;;;;5027831;28;20056;-76
2021/06/07 03:56:31;;;;;;;35.90;24.65;;;15.90;92.80;;;;;;5023238;28;20406;-77
2021/06/07 03:58:57;;;;;;;36.22;24.63;;;15.90;92.50;;;;;;5021714;28;20388;-78
2021/06/07 04:01:22;;;;;;;39.35;23.92;;;15.90;93.10;;;;;;5008266;28;20037;-76
2021/06/07 04:03:48;;;;;;;35.60;22.70;;;15.90;92.60;;;;;;5025316;28;20075;-77
2021/06/07 04:06:15;;;;;;;32.83;23.05;;;15.90;92.70;;;;;;4668432;28;10000375;-77
2021/06/07 04:08:41;;;;;;;43.20;24.42;;;16.00;93.20;;;;;;5002969;28;20021;-78
2021/06/07 04:11:06;;;;;;;36.13;23.77;;;15.90;93.20;;;;;;5010958;28;20518;-76
2021/06/07 04:13:32;;;;;;;31.73;19.90;;;15.90;93.10;;;;;;5019725;28;20461;-76
2021/06/07 04:15:57;;;;;;;29.23;21.90;;;15.90;92.80;;;;;;5016966;28;20099;-76
2021/06/07 04:18:23;;;;;;;29.92;20.60;;;16.00;93.10;;;;;;5021689;28;20402;-77
2021/06/07 04:20:48;;;;;;;30.92;21.38;;;15.90;93.20;;;;;;5014764;28;20405;-77
2021/06/07 04:23:14;;;;;;;33.35;20.83;;;15.90;93.20;;;;;;5034848;28;20029;-77
2021/06/07 04:25:40;;;;;;;28.80;20.38;;;15.90;93.20;;;;;;5039204;28;20025;-78
2021/06/07 04:28:05;;;;;;;27.27;19.00;;;15.90;93.00;;;;;;5042231;28;20514;-77
2021/06/07 04:30:31;;;;;;;29.10;20.25;;;15.90;93.10;;;;;;5020730;28;20021;-77
2021/06/07 04:32:57;;;;;;;27.27;19.13;;;15.90;93.20;;;;;;5040049;28;20063;-77
2021/06/07 04:35:23;;;;;;;31.15;19.67;;;15.90;93.00;;;;;;5027974;28;20485;-77
2021/06/07 04:37:53;;;;;;;31.10;20.10;;;15.90;93.00;;;;;;5027040;28;20041;-77
2021/06/07 04:40:23;;;;;;;29.85;18.73;;;15.90;92.70;;;;;;5034565;28;20051;-77
2021/06/07 04:42:49;;;;;;;36.00;20.42;;;15.90;92.70;;;;;;5019377;28;20040;-76
2021/06/07 04:45:15;;;;;;;29.13;19.45;;;15.90;92.90;;;;;;5038116;28;20429;-77
2021/06/07 04:47:40;;;;;;;28.05;17.80;;;16.00;93.00;;;;;;5037570;28;20067;-77
2021/06/07 04:50:07;;;;;;;30.20;21.23;;;16.00;92.80;;;;;;5036750;28;20036;-76
2021/06/07 04:52:34;;;;;;;30.77;20.02;;;16.00;93.20;;;;;;5036652;28;20037;-76
2021/06/07 04:55:00;;;;;;;33.75;20.08;;;16.00;92.80;;;;;;5019993;28;20059;-77
2021/06/07 04:57:25;;;;;;;28.83;18.90;;;16.00;92.60;;;;;;5019544;28;20029;-77
2021/06/07 04:59:51;;;;;;;33.50;20.08;;;16.10;92.60;;;;;;5025659;28;20044;-78
2021/06/07 05:02:16;;;;;;;27.95;19.88;;;16.10;92.80;;;;;;5036604;28;20066;-77
2021/06/07 05:04:42;;;;;;;32.33;19.75;;;16.10;92.80;;;;;;5037296;28;20037;-78
2021/06/07 05:07:07;;;;;;;37.53;21.05;;;16.10;92.80;;;;;;5018949;28;20041;-78
2021/06/07 05:09:33;;;;;;;29.95;19.83;;;16.10;92.80;;;;;;5016796;28;20039;-77
2021/06/07 05:11:58;;;;;;;26.45;17.80;;;16.20;93.20;;;;;;5037121;28;20201;-77
2021/06/07 05:14:24;;;;;;;26.85;17.02;;;16.10;92.90;;;;;;5034595;28;20122;-77
2021/06/07 05:16:49;;;;;;;26.55;18.02;;;16.20;93.00;;;;;;5036151;28;20494;-78
2021/06/07 05:19:15;;;;;;;28.88;18.83;;;16.20;92.60;;;;;;5009860;28;20401;-77
2021/06/07 05:21:40;;;;;;;33.60;20.13;;;16.30;92.80;;;;;;5020568;28;20492;-77
2021/06/07 05:24:06;;;;;;;29.85;20.13;;;16.30;92.90;;;;;;5029691;28;20037;-77
2021/06/07 05:26:32;;;;;;;24.23;18.73;;;16.30;92.80;;;;;;5004337;28;20513;-77
2021/06/07 05:28:57;;;;;;;32.05;20.02;;;16.30;92.60;;;;;;5008818;28;20565;-77
2021/06/07 05:31:25;;;;;;;25.10;17.95;;;16.40;92.50;;;;;;5020290;28;20032;-77
2021/06/07 05:33:51;;;;;;;25.55;19.98;;;16.40;92.50;;;;;;5033986;28;20500;-77
2021/06/07 05:36:16;;;;;;;25.33;19.05;;;16.50;92.70;;;;;;5019016;28;20499;-78
2021/06/07 05:38:42;;;;;;;24.70;17.52;;;16.50;92.50;;;;;;5021352;28;20132;-78
2021/06/07 05:41:08;;;;;;;23.80;17.25;;;16.60;92.40;;;;;;5018093;28;20037;-78
2021/06/07 05:43:33;;;;;;;28.83;19.70;;;16.60;92.30;;;;;;5009185;28;20029;-77
2021/06/07 05:45:59;;;;;;;29.02;18.77;;;16.70;92.60;;;;;;5020127;28;20393;-78
2021/06/07 05:48:25;;;;;;;25.38;19.58;;;16.70;92.70;;;;;;5013688;28;20044;-77
2021/06/07 05:50:51;;;;;;;24.23;17.67;;;16.80;92.70;;;;;;5018791;28;20026;-77
2021/06/07 05:53:18;;;;;;;27.75;19.67;;;16.80;92.40;;;;;;5017270;28;20037;-79
2021/06/07 05:55:44;;;;;;;27.65;18.92;;;16.90;92.60;;;;;;4998972;28;20048;-78
2021/06/07 05:58:14;;;;;;;28.50;18.45;;;16.90;92.90;;;;;;5012334;28;20033;-78
2021/06/07 06:00:42;;;;;;;27.67;19.45;;;17.00;92.80;;;;;;5006301;28;20021;-78
2021/06/07 06:03:08;;;;;;;33.05;18.75;;;17.00;92.60;;;;;;5017203;28;20041;-79
2021/06/07 06:05:35;;;;;;;29.85;19.70;;;17.10;92.50;;;;;;5015229;28;20215;-77
2021/06/07 06:08:01;;;;;;;29.90;19.23;;;17.10;92.60;;;;;;4988172;28;20389;-77
2021/06/07 06:10:26;;;;;;;28.10;19.23;;;17.20;92.60;;;;;;5015042;28;20048;-77
2021/06/07 06:12:52;;;;;;;26.92;18.98;;;17.30;92.60;;;;;;5023991;28;20048;-77
2021/06/07 06:15:19;;;;;;;23.80;16.42;;;17.40;92.50;;;;;;5024372;28;20219;-78
2021/06/07 06:17:45;;;;;;;29.00;19.23;;;17.50;92.50;;;;;;5016950;28;20072;-77
2021/06/07 06:20:11;;;;;;;21.83;17.58;;;17.60;92.50;;;;;;5000189;28;20442;-78
2021/06/07 06:22:37;;;;;;;21.50;16.67;;;17.70;92.60;;;;;;5015993;28;20389;-77
2021/06/07 06:25:04;;;;;;;27.90;19.13;;;17.90;92.40;;;;;;5032823;28;20040;-77
2021/06/07 06:27:30;;;;;;;26.42;17.90;;;18.00;92.50;;;;;;5015443;28;20045;-78
2021/06/07 06:29:55;;;;;;;23.55;17.30;;;18.20;92.30;;;;;;5015285;28;20033;-78
2021/06/07 06:32:21;;;;;;;25.55;18.60;;;18.20;92.30;;;;;;5032677;28;20045;-79
2021/06/07 06:34:48;;;;;;;24.35;17.60;;;18.30;92.20;;;;;;5017600;28;20037;-78
2021/06/07 06:37:13;;;;;;;23.70;17.30;;;18.50;92.20;;;;;;5024882;28;20595;-77
2021/06/07 06:39:39;;;;;;;24.33;16.05;;;18.60;92.10;;;;;;5003566;28;20112;-77
2021/06/07 06:42:05;;;;;;;25.65;17.33;;;18.70;92.00;;;;;;5000132;28;20042;-77
2021/06/07 06:44:31;;;;;;;23.63;15.82;;;18.90;91.80;;;;;;5013661;28;20642;-78
2021/06/07 06:46:56;;;;;;;24.88;15.90;;;19.00;91.90;;;;;;5022833;28;20041;-78
2021/06/07 06:49:22;;;;;;;21.25;16.23;;;19.20;91.90;;;;;;5022080;28;20069;-77
2021/06/07 06:51:48;;;;;;;25.17;17.42;;;19.30;91.70;;;;;;5026278;28;20025;-78
2021/06/07 06:54:13;;;;;;;23.85;15.82;;;19.30;91.60;;;;;;5036305;28;20041;-78
2021/06/07 06:56:39;;;;;;;24.67;16.88;;;19.50;91.50;;;;;;5010321;28;20480;-79
2021/06/07 06:59:04;;;;;;;24.33;17.13;;;19.60;91.50;;;;;;5019027;28;20029;-77
2021/06/07 07:01:30;;;;;;;21.30;16.58;;;19.70;91.40;;;;;;5008435;28;20037;-78
2021/06/07 07:03:56;;;;;;;25.40;17.77;;;19.80;91.10;;;;;;5036979;28;20171;-78
2021/06/07 07:06:25;;;;;;;25.98;18.25;;;20.00;91.10;;;;;;5019773;28;20107;-78
2021/06/07 07:08:51;;;;;;;21.30;18.20;;;20.20;91.00;;;;;;5017363;28;20499;-77
2021/06/07 07:11:16;;;;;;;27.27;17.92;;;20.20;90.70;;;;;;5007843;28;20033;-78
2021/06/07 07:13:42;;;;;;;23.38;16.90;;;20.40;90.70;;;;;;5025832;28;20485;-78
2021/06/07 07:16:07;;;;;;;23.05;17.63;;;20.50;90.60;;;;;;5038617;28;20026;-78
2021/06/07 07:18:34;;;;;;;20.98;16.85;;;20.60;90.40;;;;;;5020233;28;20040;-78
2021/06/07 07:20:59;;;;;;;21.90;18.13;;;20.70;90.40;;;;;;5013811;28;20091;-78
2021/06/07 07:23:25;;;;;;;21.85;18.27;;;20.80;89.90;;;;;;5025078;28;20460;-78
2021/06/07 07:25:50;;;;;;;19.38;17.27;;;20.80;89.30;;;;;;5036746;28;20024;-79
2021/06/07 07:28:16;;;;;;;21.85;17.27;;;20.80;89.30;;;;;;5010066;28;20041;-78
2021/06/07 07:30:42;;;;;;;20.50;15.82;;;21.00;89.40;;;;;;5026645;28;20029;-78
2021/06/07 07:33:07;;;;;;;19.98;14.38;;;21.00;88.00;;;;;;5019800;28;20401;-79
2021/06/07 07:35:34;;;;;;;19.90;16.70;;;21.10;88.20;;;;;;5005755;28;20044;-78
2021/06/07 07:38:00;;;;;;;21.58;15.23;;;21.20;87.10;;;;;;5035051;28;20512;-78
2021/06/07 07:40:26;;;;;;;21.38;15.98;;;21.20;87.40;;;;;;5028330;28;20043;-77
2021/06/07 07:42:53;;;;;;;19.75;15.55;;;21.20;87.30;;;;;;5019859;28;20037;-78
2021/06/07 07:45:20;;;;;;;20.13;14.73;;;21.30;87.20;;;;;;5010294;28;20695;-78
2021/06/07 07:47:45;;;;;;;14.30;12.73;;;21.30;86.90;;;;;;5030377;28;20033;-79
2021/06/07 07:50:13;;;;;;;18.25;14.10;;;21.40;87.20;;;;;;5019071;28;20056;-79
2021/06/07 07:52:42;;;;;;;15.70;12.73;;;21.60;87.90;;;;;;5038043;28;20352;-78
2021/06/07 07:55:10;;;;;;;15.88;13.95;;;21.70;87.00;;;;;;5006855;28;20047;-78
2021/06/07 07:57:36;;;;;;;15.43;13.80;;;21.80;86.30;;;;;;5034501;28;20045;-78
2021/06/07 08:00:05;;;;;;;14.50;11.55;;;22.00;86.10;;;;;;5025384;28;20037;-79
2021/06/07 08:02:30;;;;;;;17.95;13.43;;;22.20;86.40;;;;;;5033614;28;20040;-79
2021/06/07 08:04:56;;;;;;;18.65;13.20;;;22.60;85.90;;;;;;5023037;28;20026;-78
2021/06/07 08:07:21;;;;;;;18.73;15.23;;;23.00;85.90;;;;;;5021217;28;20052;-78
2021/06/07 08:09:49;;;;;;;15.40;13.38;;;23.50;83.90;;;;;;5020491;28;20033;-79
2021/06/07 08:12:14;;;;;;;15.23;12.90;;;23.60;82.70;;;;;;5015316;28;20033;-78
2021/06/07 08:14:40;;;;;;;18.58;11.38;;;23.90;83.00;;;;;;5025745;28;20583;-78
2021/06/07 08:17:06;;;;;;;21.73;12.77;;;24.10;80.60;;;;;;5035047;28;20388;-78
2021/06/07 08:19:31;;;;;;;14.45;10.38;;;24.30;79.80;;;;;;5007004;28;20028;-79
2021/06/07 08:21:57;;;;;;;13.55;11.95;;;24.20;80.70;;;;;;5027991;28;20033;-78
2021/06/07 08:24:22;;;;;;;13.75;10.48;;;24.40;80.70;;;;;;5001759;28;20040;-79
2021/06/07 08:26:48;;;;;;;15.68;11.98;;;24.70;80.40;;;;;;4991183;28;20111;-79
2021/06/07 08:29:13;;;;;;;13.48;11.25;;;25.00;77.90;;;;;;5035770;28;20203;-78
2021/06/07 08:31:39;;;;;;;15.75;10.05;;;25.30;78.90;;;;;;5034035;28;20032;-78
2021/06/07 08:34:04;;;;;;;10.75;8.60;;;25.60;77.50;;;;;;5006077;28;20120;-79
2021/06/07 08:36:30;;;;;;;17.50;10.98;;;25.70;77.30;;;;;;5003703;28;21868;-80
2021/06/07 08:38:56;;;;;;;13.02;9.45;;;26.00;77.10;;;;;;5007465;28;20045;-80
2021/06/07 08:41:21;;;;;;;13.02;9.98;;;26.30;78.70;;;;;;5021102;28;20524;-80
2021/06/07 08:43:47;;;;;;;10.35;9.25;;;26.80;77.20;;;;;;5036684;28;20568;-80
2021/06/07 08:46:14;;;;;;;11.73;8.50;;;27.20;76.00;;;;;;5023105;28;20393;-80
2021/06/07 08:48:39;;;;;;;17.40;11.73;;;27.50;76.30;;;;;;5027324;28;20447;-80
2021/06/07 08:51:05;;;;;;;11.07;9.32;;;27.70;73.70;;;;;;5017874;28;20049;-80
2021/06/07 08:53:31;;;;;;;11.25;10.05;;;27.90;72.60;;;;;;5004181;28;20063;-80
2021/06/07 08:55:56;;;;;;;12.23;8.77;;;28.00;71.10;;;;;;5002756;28;20111;-80
2021/06/07 08:58:24;;;;;;;14.98;8.30;;;28.00;72.60;;;;;;5020050;28;20042;-80
2021/06/07 09:00:49;;;;;;;16.48;9.65;;;27.90;71.30;;;;;;5023056;28;20507;-80
2021/06/07 09:03:16;;;;;;;13.88;9.38;;;27.80;70.30;;;;;;5023711;28;20072;-78
2021/06/07 09:05:43;;;;;;;10.30;9.23;;;27.80;69.70;;;;;;5015132;28;20022;-79
2021/06/07 09:08:10;;;;;;;9.30;8.05;;;27.70;69.90;;;;;;4996727;28;20052;-79
2021/06/07 09:10:43;;;;;;;10.48;7.72;;;27.60;69.20;;;;;;5023400;28;20035;-79
2021/06/07 09:13:10;;;;;;;11.70;7.57;;;27.70;69.30;;;;;;5016860;28;20539;-79
2021/06/07 09:15:38;;;;;;;8.55;6.90;;;27.70;69.30;;;;;;5001037;28;20479;-80
2021/06/07 09:18:04;;;;;;;13.52;9.77;;;27.70;69.80;;;;;;4999406;28;20042;-78
2021/06/07 09:20:30;;;;;;;7.65;6.78;;;27.90;69.70;;;;;;5035280;28;20061;-80
2021/06/07 09:23:01;;;;;;;7.70;6.78;;;28.10;69.50;;;;;;5013386;28;20033;-79
2021/06/07 09:25:31;;;;;;;7.85;6.20;;;28.30;68.00;;;;;;5005185;28;20047;-79
2021/06/07 09:28:08;;;;;;;11.10;9.07;;;28.20;66.60;;;;;;5019631;28;20039;-77
2021/06/07 09:30:58;;;;;;;11.15;8.18;;;28.10;66.60;;;;;;5037641;28;20025;-77
2021/06/07 09:33:41;;;;;;;9.85;7.72;;;27.90;67.20;;;;;;5034421;28;20084;-78
2021/06/07 09:36:51;;;;;;;11.85;10.07;;;27.80;66.60;;;;;;5031877;28;20227;-77
2021/06/07 09:39:23;;;;;;;9.35;8.20;;;27.50;66.40;;;;;;5035457;28;20021;-77
2021/06/07 09:42:14;;;;;;;9.30;8.30;;;27.30;66.30;;;;;;5026496;28;20401;-78
2021/06/07 09:44:44;;;;;;;10.80;7.03;;;27.10;66.30;;;;;;5037355;28;20044;-77
2021/06/07 09:47:30;;;;;;;17.40;9.60;;;26.90;66.90;;;;;;5018945;28;20065;-77
2021/06/07 09:50:07;;;;;;;14.15;8.48;;;26.80;66.40;;;;;;5024345;28;20068;-77
2021/06/07 09:52:48;;;;;;;11.25;8.68;;;26.60;65.90;;;;;;5018602;28;20396;-78
2021/06/07 09:55:24;;;;;;;11.27;7.53;;;26.40;66.20;;;;;;5031191;28;20029;-76
2021/06/07 09:58:02;;;;;;;11.35;8.45;;;26.20;66.40;;;;;;5017826;28;20033;-76
2021/06/07 10:00:35;;;;;;;8.30;7.45;;;25.80;66.30;;;;;;5022862;28;20172;-76
2021/06/07 10:03:23;;;;;;;8.30;7.28;;;25.60;67.20;;;;;;5018470;28;20075;-77
2021/06/07 10:06:02;;;;;;;7.88;7.18;;;25.40;67.50;;;;;;5019170;28;20234;-77
2021/06/07 10:08:44;;;;;;;10.27;9.15;;;25.20;67.80;;;;;;5022302;28;20447;-77
2021/06/07 10:11:17;;;;;;;10.02;8.18;;;25.00;68.00;;;;;;5006609;28;20413;-78
2021/06/07 10:13:43;;;;;;;14.68;8.80;;;24.70;68.30;;;;;;5030770;28;20033;-76
2021/06/07 10:16:09;;;;;;;13.10;11.77;;;24.60;68.80;;;;;;5019542;28;20035;-77
2021/06/07 10:18:35;;;;;;;15.45;11.27;;;24.50;68.90;;;;;;5006736;28;20090;-77
2021/06/07 10:21:00;;;;;;;17.90;12.95;;;24.40;69.30;;;;;;5017376;28;20037;-77
2021/06/07 10:23:28;;;;;;;11.45;10.15;;;24.20;69.80;;;;;;5012917;28;20110;-77
2021/06/07 10:25:55;;;;;;;13.00;9.82;;;24.10;69.70;;;;;;5013171;28;20029;-77
2021/06/07 10:28:37;;;;;;;11.00;7.70;;;24.10;70.10;;;;;;5014004;28;20422;-77
2021/06/07 10:31:37;;;;;;;11.10;8.70;;;24.10;70.70;;;;;;5014214;28;20036;-77
2021/06/07 10:34:04;;;;;;;9.65;8.02;;;24.10;70.20;;;;;;5017937;28;20091;-77
2021/06/07 10:36:37;;;;;;;10.68;8.90;;;24.10;70.40;;;;;;5033121;28;20459;-77
2021/06/07 10:39:16;;;;;;;10.40;7.03;;;24.10;70.80;;;;;;5016921;28;20083;-78
2021/06/07 10:41:45;;;;;;;8.77;7.22;;;24.10;70.70;;;;;;5036101;28;20423;-79
2021/06/07 10:44:11;;;;;;;8.25;7.45;;;24.10;70.50;;;;;;5036084;28;20516;-76
2021/06/07 10:46:42;;;;;;;7.78;6.97;;;24.10;70.50;;;;;;5039120;28;20052;-77
2021/06/07 10:49:40;;;;;;;9.93;7.32;;;24.20;70.60;;;;;;5016772;28;20536;-77
2021/06/07 10:52:11;;;;;;;8.10;7.05;;;24.10;70.10;;;;;;5029696;28;20033;-78
2021/06/07 10:54:38;;;;;;;8.13;6.80;;;24.10;70.20;;;;;;5022611;28;20079;-78
2021/06/07 10:57:25;;;;;;;11.07;8.05;;;24.10;70.60;;;;;;5016099;28;20114;-77
2021/06/07 10:59:52;;;;;;;8.50;7.20;;;23.90;70.20;;;;;;5037967;28;20485;-78
2021/06/07 11:02:18;;;;;;;9.38;7.45;;;23.90;70.40;;;;;;5012271;28;20032;-78
2021/06/07 11:04:44;;;;;;;17.63;8.73;;;23.70;70.50;;;;;;5018027;28;20033;-78
2021/06/07 11:07:10;;;;;;;7.75;6.82;;;23.60;70.70;;;;;;5009674;28;20041;-77
2021/06/07 11:09:56;;;;;;;8.32;7.20;;;23.50;70.40;;;;;;5037313;28;20033;-77
2021/06/07 11:12:31;;;;;;;7.13;6.43;;;23.40;70.30;;;;;;5036129;28;20090;-78
2021/06/07 11:15:09;;;;;;;7.88;7.00;;;23.10;71.30;;;;;;5025231;28;20536;-78
2021/06/07 11:17:35;;;;;;;10.35;6.50;;;23.00;70.80;;;;;;5037853;28;20485;-77
2021/06/07 11:20:01;;;;;;;10.18;7.25;;;23.00;71.20;;;;;;4999640;28;20032;-78
2021/06/07 11:22:26;;;;;;;7.32;5.97;;;22.90;71.30;;;;;;5008747;28;20096;-77
2021/06/07 11:24:52;;;;;;;6.15;5.50;;;22.80;71.40;;;;;;4989909;28;20071;-78
2021/06/07 11:27:37;;;;;;;9.15;6.60;;;22.80;71.80;;;;;;5003418;28;20064;-77
2021/06/07 11:30:10;;;;;;;7.00;6.15;;;22.80;71.80;;;;;;5015527;28;20044;-78
2021/06/07 11:32:38;;;;;;;9.68;6.18;;;22.80;71.90;;;;;;5010999;28;20052;-79
2021/06/07 11:35:05;;;;;;;6.72;6.13;;;22.70;71.60;;;;;;5037828;28;20108;-78
2021/06/07 11:37:32;;;;;;;10.40;6.90;;;22.80;71.90;;;;;;5026318;28;20125;-77
2021/06/07 11:39:58;;;;;;;7.07;6.03;;;22.80;72.30;;;;;;5034507;28;21520;-77
2021/06/07 11:42:26;;;;;;;7.50;5.43;;;22.80;72.40;;;;;;5020924;28;20063;-78
2021/06/07 11:44:53;;;;;;;7.25;6.57;;;22.90;72.50;;;;;;5027845;28;20037;-79
2021/06/07 11:47:41;;;;;;;8.65;6.57;;;23.00;72.50;;;;;;5039005;28;20509;-78
2021/06/07 11:50:26;;;;;;;11.15;6.25;;;23.00;72.30;;;;;;5040255;28;20044;-77
2021/06/07 11:52:52;;;;;;;6.60;6.00;;;23.10;72.40;;;;;;5020195;28;20038;-78
2021/06/07 11:55:33;;;;;;;7.47;6.80;;;23.20;72.40;;;;;;5036886;28;20033;-77
2021/06/07 11:58:19;;;;;;;7.97;5.72;;;23.40;72.30;;;;;;5028701;28;20033;-77
2021/06/07 12:00:51;;;;;;;9.90;6.25;;;23.40;72.20;;;;;;5015771;28;20029;-78
2021/06/07 12:03:21;;;;;;;6.97;5.82;;;23.50;71.90;;;;;;5043690;28;20682;-78
2021/06/07 12:05:46;;;;;;;8.93;5.75;;;23.60;71.60;;;;;;5038405;28;20127;-77
2021/06/07 12:08:13;;;;;;;5.82;5.22;;;23.70;71.90;;;;;;5022408;28;20124;-78
2021/06/07 12:10:40;;;;;;;5.72;5.22;;;23.90;72.20;;;;;;5025410;28;20488;-78
2021/06/07 12:13:22;;;;;;;6.30;5.43;;;24.00;71.70;;;;;;5010121;28;20097;-77
2021/06/07 12:16:01;;;;;;;6.45;5.90;;;24.10;71.80;;;;;;5035982;28;20050;-78
2021/06/07 12:18:29;;;;;;;6.55;5.95;;;24.20;70.70;;;;;;5038578;28;20041;-78
2021/06/07 12:20:58;;;;;;;7.13;6.30;;;24.40;70.30;;;;;;5017348;28;20061;-77
2021/06/07 12:23:27;;;;;;;10.48;6.03;;;24.40;70.10;;;;;;4996384;28;20453;-76
2021/06/07 12:28:37;;;;;;;5.88;5.13;;;24.40;69.20;;;;;;5039969;28;20489;-77
2021/06/07 12:31:02;;;;;;;8.82;7.20;;;24.30;69.70;;;;;;5017776;28;20090;-77
2021/06/07 12:33:30;;;;;;;10.70;6.60;;;24.30;69.60;;;;;;5026118;28;20130;-76
2021/06/07 12:35:55;;;;;;;8.52;6.50;;;24.30;69.80;;;;;;5018174;28;20041;-77